Time;durP1;ratioP1;P1;durP2;ratioP2;P2;SDS_P1;SDS_P2;PMS_P1;PMS_P2;Temp;Humidity;BMP_temperature;BMP_pressure;BME280_temperature;BME280_humidity;BME280_pressure;Samples;Min_cycle;Max_cycle;Signal;HPM_P1;HPM_P2
2021/12/21 00:01:28;;;;;;;17.27;11.73;;;1.60;99.90;;;;;;5038420;28;20962;-70
2021/12/21 00:03:56;;;;;;;19.07;10.97;;;1.60;99.90;;;;;;5039171;28;20217;-70
2021/12/21 00:06:23;;;;;;;16.37;10.50;;;1.60;99.90;;;;;;5023291;28;20664;-70
2021/12/21 00:08:50;;;;;;;16.17;10.50;;;1.70;99.90;;;;;;5033810;28;20194;-71
2021/12/21 00:11:18;;;;;;;13.90;10.63;;;1.70;99.90;;;;;;5023219;28;20224;-71
2021/12/21 00:14:15;;;;;;;17.83;10.30;;;1.70;99.90;;;;;;5031943;28;20207;-71
2021/12/21 00:19:42;;;;;;;17.40;11.27;;;1.50;99.90;;;;;;5016773;28;20207;-71
2021/12/21 00:22:52;;;;;;;20.33;11.80;;;1.40;99.90;;;;;;5046903;28;20198;-70
2021/12/21 00:25:17;;;;;;;18.20;11.33;;;1.20;99.90;;;;;;5042441;28;20229;-71
2021/12/21 00:27:45;;;;;;;17.57;11.73;;;1.30;99.90;;;;;;5025959;28;20184;-70
2021/12/21 00:30:14;;;;;;;20.10;10.67;;;1.40;99.90;;;;;;5038378;28;20214;-70
2021/12/21 00:32:44;;;;;;;18.40;11.33;;;1.30;99.90;;;;;;5018404;28;20198;-70
2021/12/21 00:35:36;;;;;;;19.43;11.83;;;1.40;99.90;;;;;;5043652;28;20573;-70
2021/12/21 00:38:04;;;;;;;17.07;10.83;;;1.60;99.90;;;;;;5032886;28;20209;-70
2021/12/21 00:40:31;;;;;;;16.03;11.30;;;1.60;99.90;;;;;;5030164;28;20202;-70
2021/12/21 00:42:59;;;;;;;16.67;10.70;;;1.70;99.90;;;;;;5029416;28;20205;-70
2021/12/21 00:45:26;;;;;;;16.33;11.47;;;1.60;99.90;;;;;;5028765;28;20235;-70
2021/12/21 00:47:55;;;;;;;17.97;11.67;;;1.50;99.90;;;;;;5041704;28;20222;-71
2021/12/21 00:50:23;;;;;;;16.17;11.50;;;1.30;99.90;;;;;;5047550;28;20218;-70
2021/12/21 00:56:04;;;;;;;17.63;11.40;;;1.30;99.90;;;;;;5020940;28;20207;-72
2021/12/21 00:58:31;;;;;;;16.50;10.87;;;1.40;99.90;;;;;;5041364;28;20199;-70
2021/12/21 01:01:03;;;;;;;17.23;10.93;;;1.30;99.90;;;;;;5037603;28;20199;-70
2021/12/21 01:03:32;;;;;;;17.40;10.63;;;1.40;99.90;;;;;;5036992;28;20201;-70
2021/12/21 01:06:08;;;;;;;16.20;10.70;;;1.20;99.90;;;;;;5033137;28;20238;-70
2021/12/21 01:08:46;;;;;;;15.63;10.90;;;1.20;99.90;;;;;;5026643;28;20206;-70
2021/12/21 01:11:31;;;;;;;15.07;10.43;;;1.10;99.90;;;;;;5032524;28;20217;-71
2021/12/21 01:14:11;;;;;;;16.07;10.47;;;0.80;99.90;;;;;;5028444;28;20226;-70
2021/12/21 01:16:44;;;;;;;16.83;11.03;;;0.80;99.90;;;;;;5027513;28;20202;-70
2021/12/21 01:19:18;;;;;;;14.83;10.70;;;0.80;99.90;;;;;;5032803;28;20661;-70
2021/12/21 01:21:57;;;;;;;16.10;10.93;;;0.80;99.90;;;;;;5029738;28;20278;-70
2021/12/21 01:24:49;;;;;;;14.97;10.63;;;0.70;99.90;;;;;;5024716;28;20219;-70
2021/12/21 01:27:26;;;;;;;17.23;11.73;;;0.80;99.90;;;;;;5021818;28;20210;-70
2021/12/21 01:30:05;;;;;;;17.87;10.97;;;0.80;99.90;;;;;;5031927;28;20207;-70
2021/12/21 01:32:50;;;;;;;18.83;11.20;;;0.80;99.90;;;;;;5041499;28;20215;-71
2021/12/21 01:35:26;;;;;;;17.10;11.47;;;0.80;99.90;;;;;;5040852;28;20221;-70
2021/12/21 01:37:59;;;;;;;19.43;11.83;;;0.90;99.90;;;;;;5035141;28;20185;-70
2021/12/21 01:40:34;;;;;;;18.57;12.33;;;0.80;99.90;;;;;;5032611;28;20207;-70
2021/12/21 01:51:31;;;;;;;15.20;11.20;;;0.80;99.90;;;;;;4993953;28;20217;-70
2021/12/21 01:53:58;;;;;;;17.23;12.17;;;0.80;99.90;;;;;;5037780;28;20199;-70
2021/12/21 01:56:26;;;;;;;21.23;12.03;;;0.80;99.90;;;;;;5039995;28;20201;-70
2021/12/21 01:58:55;;;;;;;18.23;12.67;;;0.90;99.90;;;;;;5016611;28;20183;-70
2021/12/21 02:01:25;;;;;;;19.40;12.40;;;0.90;99.90;;;;;;5032786;28;20188;-70
2021/12/21 02:03:53;;;;;;;19.23;12.73;;;0.90;99.90;;;;;;5033246;28;20206;-70
2021/12/21 02:06:22;;;;;;;20.67;12.03;;;0.80;99.90;;;;;;5030999;28;20195;-70
2021/12/21 02:08:52;;;;;;;18.60;11.50;;;0.70;99.90;;;;;;5024643;28;20657;-70
2021/12/21 02:11:20;;;;;;;17.70;11.70;;;0.70;99.90;;;;;;5021965;28;20241;-70
2021/12/21 02:14:28;;;;;;;16.40;11.30;;;0.70;99.90;;;;;;5034749;28;20656;-70
2021/12/21 02:17:11;;;;;;;18.03;10.97;;;0.60;99.90;;;;;;5023514;28;20206;-70
2021/12/21 02:19:43;;;;;;;17.57;10.83;;;0.60;99.90;;;;;;5035021;28;20202;-70
2021/12/21 02:22:14;;;;;;;17.13;10.83;;;0.60;99.90;;;;;;5028811;28;20210;-70
2021/12/21 02:24:49;;;;;;;16.60;11.33;;;0.50;99.90;;;;;;5011839;28;20219;-70
2021/12/21 02:27:27;;;;;;;17.83;11.43;;;0.30;99.90;;;;;;5016840;28;20182;-70
2021/12/21 02:29:54;;;;;;;15.87;10.77;;;-0.10;99.90;;;;;;5037274;28;20206;-70
2021/12/21 02:32:22;;;;;;;18.47;11.13;;;-0.20;99.90;;;;;;5022571;28;20223;-70
2021/12/21 02:34:51;;;;;;;17.47;11.63;;;-0.20;99.90;;;;;;5021122;28;20234;-70
2021/12/21 02:37:19;;;;;;;16.27;11.70;;;-0.10;99.90;;;;;;5023354;28;20214;-70
2021/12/21 02:39:46;;;;;;;20.23;12.43;;;-0.20;99.90;;;;;;5030912;28;20657;-70
2021/12/21 02:42:13;;;;;;;17.93;12.10;;;-0.20;99.90;;;;;;5027361;28;20193;-70
2021/12/21 02:44:47;;;;;;;17.83;11.50;;;-0.20;99.90;;;;;;5023659;28;20230;-70
2021/12/21 02:47:26;;;;;;;19.20;12.10;;;-0.20;99.90;;;;;;5028204;28;20196;-70
2021/12/21 02:49:55;;;;;;;20.67;12.80;;;-0.30;99.90;;;;;;5020252;28;20203;-72
2021/12/21 02:52:22;;;;;;;20.97;11.70;;;-0.30;99.90;;;;;;5044180;28;20224;-71
2021/12/21 02:54:49;;;;;;;18.87;11.87;;;-0.10;99.90;;;;;;5030923;28;20224;-70
2021/12/21 02:57:17;;;;;;;18.83;11.77;;;-0.20;99.90;;;;;;5018165;28;20556;-70
2021/12/21 02:59:44;;;;;;;18.83;11.87;;;-0.20;99.90;;;;;;5023475;28;20220;-70
2021/12/21 03:02:12;;;;;;;17.47;12.03;;;-0.20;99.90;;;;;;5021323;28;20199;-70
2021/12/21 03:04:43;;;;;;;16.93;10.53;;;-0.20;99.90;;;;;;5023690;28;20586;-70
2021/12/21 03:07:46;;;;;;;15.57;10.43;;;-0.40;99.90;;;;;;5019943;28;20207;-70
2021/12/21 03:10:14;;;;;;;14.70;10.33;;;-0.30;99.90;;;;;;5012041;28;20211;-70
2021/12/21 03:15:27;;;;;;;17.03;10.80;;;-0.60;99.90;;;;;;5025551;28;20628;-70
2021/12/21 03:17:56;;;;;;;14.43;11.00;;;-0.60;99.90;;;;;;5027774;28;20199;-70
2021/12/21 03:20:26;;;;;;;15.17;11.07;;;-0.80;99.90;;;;;;5027195;28;20197;-70
2021/12/21 03:22:55;;;;;;;15.20;11.17;;;-0.80;99.90;;;;;;5027256;28;20179;-70
2021/12/21 03:25:32;;;;;;;16.23;11.03;;;-0.60;99.90;;;;;;5019566;28;20222;-70
2021/12/21 03:28:00;;;;;;;16.53;10.93;;;-0.60;99.90;;;;;;5027352;28;20562;-70
2021/12/21 03:30:27;;;;;;;16.43;11.23;;;-0.60;99.90;;;;;;5020752;28;20203;-70
2021/12/21 03:32:55;;;;;;;15.23;10.67;;;-0.50;99.90;;;;;;5038502;28;20569;-70
2021/12/21 03:35:22;;;;;;;15.73;10.37;;;-0.80;99.90;;;;;;5022092;28;20223;-70
2021/12/21 03:37:50;;;;;;;18.43;11.43;;;-0.70;99.90;;;;;;5028454;28;20216;-70
2021/12/21 03:40:18;;;;;;;18.27;11.83;;;-0.90;99.90;;;;;;5030493;28;20198;-70
2021/12/21 03:42:46;;;;;;;19.17;11.57;;;-0.60;99.90;;;;;;5017461;28;20199;-70
2021/12/21 03:45:38;;;;;;;21.10;12.97;;;-0.80;99.90;;;;;;5026890;28;20223;-70
2021/12/21 03:48:06;;;;;;;21.33;11.60;;;-0.60;99.90;;;;;;5030492;28;20203;-70
2021/12/21 03:50:33;;;;;;;21.70;11.83;;;-0.50;99.90;;;;;;5031603;28;20209;-70
2021/12/21 03:53:01;;;;;;;20.00;13.07;;;-0.50;99.90;;;;;;5030726;28;20218;-70
2021/12/21 03:55:29;;;;;;;18.03;11.20;;;-0.30;99.90;;;;;;5046475;28;20218;-70
2021/12/21 03:57:57;;;;;;;17.50;11.83;;;0.00;99.90;;;;;;5033581;28;20187;-70
2021/12/21 04:00:27;;;;;;;18.83;11.90;;;-0.40;99.90;;;;;;5025618;28;20195;-70
2021/12/21 04:02:54;;;;;;;19.77;11.67;;;-0.80;99.90;;;;;;5029899;28;20202;-70
2021/12/21 04:05:22;;;;;;;22.07;12.10;;;-0.70;99.90;;;;;;5027947;28;20717;-70
2021/12/21 04:07:49;;;;;;;21.50;12.30;;;-0.40;99.90;;;;;;5032767;28;20205;-70
2021/12/21 04:10:16;;;;;;;19.17;12.10;;;-0.50;99.90;;;;;;5036037;28;20651;-70
2021/12/21 04:12:45;;;;;;;21.47;12.73;;;-0.50;99.90;;;;;;5033839;28;20211;-70
2021/12/21 04:15:16;;;;;;;23.97;12.93;;;-0.50;99.90;;;;;;5043182;28;20214;-70
2021/12/21 04:17:44;;;;;;;22.33;12.60;;;-0.50;99.90;;;;;;5031589;28;20670;-70
2021/12/21 04:20:12;;;;;;;24.30;14.33;;;-0.50;99.90;;;;;;5047808;28;20208;-71
2021/12/21 04:22:40;;;;;;;22.10;13.17;;;-0.30;99.90;;;;;;5046719;28;20186;-70
2021/12/21 04:25:08;;;;;;;24.63;13.30;;;-0.60;99.90;;;;;;5033403;28;20222;-70
2021/12/21 04:27:35;;;;;;;21.60;13.00;;;-0.60;99.90;;;;;;5023209;28;20199;-70
2021/12/21 04:30:12;;;;;;;25.13;13.30;;;-0.40;99.90;;;;;;5014498;28;20199;-70
2021/12/21 04:32:39;;;;;;;26.77;13.20;;;-0.50;99.90;;;;;;5025615;28;20220;-70
2021/12/21 04:35:07;;;;;;;22.73;13.53;;;-0.50;99.90;;;;;;5031138;28;20584;-70
2021/12/21 04:37:41;;;;;;;21.97;13.07;;;-0.50;99.90;;;;;;5034071;28;20199;-70
2021/12/21 04:40:15;;;;;;;21.53;12.70;;;-0.50;99.90;;;;;;5044384;28;20195;-70
2021/12/21 04:42:42;;;;;;;24.00;13.13;;;-0.50;99.90;;;;;;5052600;28;20559;-70
2021/12/21 04:45:13;;;;;;;21.03;14.10;;;-0.40;99.90;;;;;;5033112;28;20227;-70
2021/12/21 04:47:41;;;;;;;21.80;12.90;;;-0.60;99.90;;;;;;5025314;28;20184;-70
2021/12/21 04:50:09;;;;;;;21.17;12.60;;;-0.50;99.90;;;;;;5013679;28;20204;-70
2021/12/21 04:52:37;;;;;;;19.63;12.73;;;-0.40;99.90;;;;;;5044317;28;20222;-70
2021/12/21 04:55:05;;;;;;;21.70;11.20;;;-0.50;99.90;;;;;;5034420;28;20215;-70
2021/12/21 04:57:32;;;;;;;19.57;12.30;;;-0.40;99.90;;;;;;5034050;28;20187;-70
2021/12/21 05:00:09;;;;;;;20.70;12.67;;;-0.60;99.90;;;;;;5032809;28;20197;-70
2021/12/21 05:02:38;;;;;;;20.53;12.17;;;-0.90;99.90;;;;;;5039159;28;20587;-70
2021/12/21 05:05:07;;;;;;;20.23;13.00;;;-0.90;99.90;;;;;;5021498;28;20234;-70
2021/12/21 05:07:36;;;;;;;23.70;12.63;;;-0.80;99.90;;;;;;5025742;28;20196;-70
2021/12/21 05:10:06;;;;;;;22.47;13.20;;;-0.80;99.90;;;;;;5030270;28;20205;-70
2021/12/21 05:12:35;;;;;;;20.77;12.40;;;-0.70;99.90;;;;;;5016702;28;20207;-70
2021/12/21 05:18:32;;;;;;;20.00;11.70;;;-0.80;99.90;;;;;;5027290;28;20193;-70
2021/12/21 05:21:00;;;;;;;19.97;11.90;;;-0.50;99.90;;;;;;5022669;28;20196;-70
2021/12/21 05:23:28;;;;;;;22.83;12.53;;;-0.50;99.90;;;;;;5022609;28;20208;-70
2021/12/21 05:25:55;;;;;;;21.87;13.17;;;-0.40;99.90;;;;;;5024316;28;20230;-70
2021/12/21 05:28:22;;;;;;;20.13;11.97;;;-0.40;99.90;;;;;;5019005;28;20199;-70
2021/12/21 05:30:50;;;;;;;17.60;11.70;;;-0.40;99.90;;;;;;5024236;28;20249;-70
2021/12/21 05:33:17;;;;;;;19.57;13.00;;;-0.40;99.90;;;;;;5027798;28;20215;-70
2021/12/21 05:35:47;;;;;;;20.97;12.57;;;0.10;99.90;;;;;;5024879;28;20222;-70
2021/12/21 05:38:19;;;;;;;19.87;11.63;;;0.10;99.90;;;;;;5024578;28;20199;-70
2021/12/21 05:40:47;;;;;;;21.80;11.63;;;-0.50;99.90;;;;;;5034646;28;20191;-70
2021/12/21 05:43:15;;;;;;;18.47;11.87;;;-0.60;99.90;;;;;;5033979;28;20175;-70
2021/12/21 05:45:43;;;;;;;17.47;12.30;;;-0.40;99.90;;;;;;5032054;28;20225;-71
2021/12/21 05:48:10;;;;;;;18.47;12.27;;;-0.40;99.90;;;;;;5023650;28;20190;-70
2021/12/21 05:50:38;;;;;;;20.80;12.93;;;-0.30;99.90;;;;;;5032062;28;20205;-70
2021/12/21 05:53:06;;;;;;;17.73;12.50;;;-0.20;99.90;;;;;;5032512;28;20228;-70
2021/12/21 05:55:34;;;;;;;21.23;12.67;;;-0.10;99.90;;;;;;5022136;28;20610;-70
2021/12/21 05:58:01;;;;;;;16.63;11.77;;;0.00;99.90;;;;;;5012494;28;20196;-70
2021/12/21 06:00:35;;;;;;;21.27;12.53;;;0.30;99.90;;;;;;5017386;28;20201;-70
2021/12/21 06:03:02;;;;;;;17.03;11.87;;;0.20;99.90;;;;;;5032008;28;20194;-70
2021/12/21 06:05:30;;;;;;;15.43;11.67;;;-0.10;99.90;;;;;;5027364;28;21287;-70
2021/12/21 06:07:57;;;;;;;18.87;11.90;;;0.00;99.90;;;;;;5031522;28;20179;-70
2021/12/21 06:10:30;;;;;;;19.97;11.20;;;-0.30;99.90;;;;;;5024759;28;20552;-70
2021/12/21 06:13:23;;;;;;;18.37;10.97;;;-0.30;99.90;;;;;;5028868;28;20211;-70
2021/12/21 06:16:08;;;;;;;19.33;12.43;;;-0.20;99.90;;;;;;5028749;28;20227;-70
2021/12/21 06:26:57;;;;;;;21.73;12.17;;;-0.10;99.90;;;;;;5035858;28;20538;-70
2021/12/21 06:29:25;;;;;;;20.20;13.07;;;-0.20;99.90;;;;;;5041895;28;20191;-70
2021/12/21 06:31:54;;;;;;;18.30;12.13;;;-0.30;99.90;;;;;;5018616;28;20650;-70
2021/12/21 06:34:21;;;;;;;18.63;12.23;;;-0.30;99.90;;;;;;5016587;28;20229;-70
2021/12/21 06:36:49;;;;;;;20.33;13.57;;;-0.40;99.90;;;;;;5032540;28;20187;-70
2021/12/21 06:39:17;;;;;;;21.53;13.10;;;-0.10;99.90;;;;;;5030605;28;20199;-70
2021/12/21 06:41:45;;;;;;;20.33;12.83;;;-0.20;99.90;;;;;;5030550;28;20664;-70
2021/12/21 06:44:16;;;;;;;23.17;13.57;;;-0.20;99.90;;;;;;5025102;28;20598;-70
2021/12/21 06:46:53;;;;;;;22.57;14.07;;;-0.20;99.90;;;;;;5028490;28;20195;-70
2021/12/21 06:52:06;;;;;;;21.90;12.67;;;-0.20;99.90;;;;;;5012821;28;20187;-70
2021/12/21 06:54:35;;;;;;;24.60;14.87;;;-0.30;99.90;;;;;;5021297;28;20588;-70
2021/12/21 06:57:02;;;;;;;21.47;13.20;;;0.00;99.90;;;;;;5030654;28;20191;-70
2021/12/21 06:59:32;;;;;;;23.80;13.43;;;-0.10;99.90;;;;;;5033898;28;20183;-70
2021/12/21 07:01:59;;;;;;;26.00;15.00;;;-0.30;99.90;;;;;;5026259;28;20192;-70
2021/12/21 07:04:27;;;;;;;22.57;13.63;;;-0.40;99.90;;;;;;5020392;28;20226;-70
2021/12/21 07:07:23;;;;;;;23.77;14.13;;;-0.60;99.90;;;;;;5020464;28;20195;-70
2021/12/21 07:10:20;;;;;;;25.10;15.10;;;-0.70;99.90;;;;;;5019999;28;20207;-70
2021/12/21 07:18:37;;;;;;;27.50;15.70;;;-0.50;99.90;;;;;;5025905;28;20198;-70
2021/12/21 07:21:05;;;;;;;26.93;14.53;;;-0.50;99.90;;;;;;5027311;28;20195;-70
2021/12/21 07:23:32;;;;;;;23.10;14.70;;;-0.50;99.90;;;;;;5032445;28;20193;-70
2021/12/21 07:25:59;;;;;;;27.27;15.77;;;-0.60;99.90;;;;;;5018586;28;20224;-70
2021/12/21 07:28:27;;;;;;;28.50;15.43;;;-0.50;99.90;;;;;;5016672;28;20201;-70
2021/12/21 07:30:56;;;;;;;23.43;15.40;;;-0.60;99.90;;;;;;5039562;28;20196;-70
2021/12/21 07:33:23;;;;;;;26.53;14.67;;;-0.50;99.90;;;;;;5032530;28;20222;-72
2021/12/21 07:35:51;;;;;;;20.93;13.63;;;-0.30;99.90;;;;;;5033367;28;20233;-73
2021/12/21 07:38:19;;;;;;;22.93;15.13;;;-0.50;99.90;;;;;;5031179;28;20200;-72
2021/12/21 07:40:47;;;;;;;24.00;14.17;;;-0.70;99.90;;;;;;5031832;28;20210;-72
2021/12/21 07:43:14;;;;;;;19.03;13.17;;;-0.70;99.90;;;;;;5038931;28;20190;-72
2021/12/21 07:45:41;;;;;;;21.60;13.53;;;-0.70;99.90;;;;;;5025620;28;20573;-72
2021/12/21 07:48:11;;;;;;;24.10;14.23;;;-0.60;99.90;;;;;;5045575;28;20198;-72
2021/12/21 07:50:39;;;;;;;23.90;13.93;;;-0.60;99.90;;;;;;5020441;28;20195;-72
2021/12/21 07:53:09;;;;;;;26.40;13.47;;;-0.60;99.90;;;;;;5028704;28;20202;-72
2021/12/21 07:55:36;;;;;;;25.23;14.83;;;-1.00;99.90;;;;;;5035380;28;20223;-72
2021/12/21 07:58:04;;;;;;;25.67;14.27;;;-1.10;99.90;;;;;;5049691;28;20209;-72
2021/12/21 08:00:31;;;;;;;27.33;15.57;;;-0.70;99.90;;;;;;5046346;28;20205;-72
2021/12/21 08:03:00;;;;;;;23.27;15.10;;;-0.70;99.90;;;;;;5018864;28;20194;-72
2021/12/21 08:05:38;;;;;;;26.30;15.33;;;-0.50;99.90;;;;;;5024514;28;20239;-73
2021/12/21 08:08:12;;;;;;;25.90;14.10;;;-0.40;99.90;;;;;;5031290;28;20194;-72
2021/12/21 08:10:46;;;;;;;27.00;15.93;;;-0.40;99.90;;;;;;5030772;28;20691;-72
2021/12/21 08:13:13;;;;;;;30.63;17.20;;;-0.50;99.90;;;;;;5022290;28;20199;-72
2021/12/21 08:15:41;;;;;;;26.87;16.43;;;-0.40;99.90;;;;;;5016005;28;20223;-72
2021/12/21 08:18:09;;;;;;;30.33;16.63;;;-0.30;99.90;;;;;;5023751;28;20206;-72
2021/12/21 08:20:37;;;;;;;28.87;15.53;;;-0.40;99.90;;;;;;5019655;28;20199;-72
2021/12/21 08:23:06;;;;;;;29.70;16.03;;;-0.40;99.90;;;;;;5032705;28;20199;-72
2021/12/21 08:25:34;;;;;;;27.20;15.63;;;-0.40;99.90;;;;;;5024700;28;20265;-72
2021/12/21 08:28:03;;;;;;;26.97;15.87;;;-0.50;99.90;;;;;;5024367;28;20194;-72
2021/12/21 08:30:31;;;;;;;25.17;16.00;;;-0.30;99.90;;;;;;5029119;28;20665;-72
2021/12/21 08:32:58;;;;;;;29.53;15.27;;;-0.20;99.90;;;;;;5029174;28;20644;-72
2021/12/21 08:35:26;;;;;;;26.77;16.00;;;-0.10;99.90;;;;;;5024484;28;20241;-72
2021/12/21 08:38:02;;;;;;;26.97;16.53;;;-0.30;99.90;;;;;;5031488;28;20528;-72
2021/12/21 08:40:36;;;;;;;26.60;16.33;;;-0.20;99.90;;;;;;5015112;28;20182;-72
2021/12/21 08:43:04;;;;;;;28.83;16.43;;;-0.30;99.90;;;;;;5034078;28;20195;-72
2021/12/21 08:45:33;;;;;;;31.23;17.10;;;-0.40;99.90;;;;;;5033211;28;20215;-72
2021/12/21 08:48:01;;;;;;;28.83;16.37;;;-0.40;99.90;;;;;;5029525;28;20199;-72
2021/12/21 08:50:29;;;;;;;32.07;17.43;;;-0.20;99.90;;;;;;5023538;28;20211;-72
2021/12/21 08:52:58;;;;;;;27.73;16.77;;;-0.30;99.90;;;;;;5029188;28;20218;-72
2021/12/21 08:55:26;;;;;;;28.60;17.83;;;-0.30;99.90;;;;;;5021022;28;20226;-72
2021/12/21 08:57:54;;;;;;;26.87;16.63;;;-0.20;99.90;;;;;;5033843;28;20557;-72
2021/12/21 09:00:22;;;;;;;30.20;18.00;;;-0.10;99.90;;;;;;5027859;28;20201;-72
2021/12/21 09:02:50;;;;;;;28.33;16.87;;;-0.30;99.90;;;;;;5030139;28;20640;-72
2021/12/21 09:05:20;;;;;;;31.80;16.80;;;-0.10;99.90;;;;;;5045185;28;20230;-72
2021/12/21 09:07:50;;;;;;;28.73;16.90;;;-0.10;99.90;;;;;;5029528;28;20538;-72
2021/12/21 09:10:21;;;;;;;25.87;16.27;;;-0.10;99.90;;;;;;5032628;28;20561;-71
2021/12/21 09:12:48;;;;;;;31.03;18.17;;;0.30;99.90;;;;;;5033220;28;20206;-72
2021/12/21 09:15:17;;;;;;;30.17;17.10;;;0.50;99.90;;;;;;5029195;28;20719;-72
2021/12/21 09:17:45;;;;;;;29.87;16.37;;;0.60;99.90;;;;;;5026992;28;20196;-72
2021/12/21 09:20:15;;;;;;;26.07;17.03;;;0.70;99.90;;;;;;5022382;28;20982;-72
2021/12/21 09:22:43;;;;;;;28.87;16.53;;;0.80;99.90;;;;;;5032883;28;20199;-72
2021/12/21 09:25:11;;;;;;;27.60;17.03;;;0.80;99.90;;;;;;5030840;28;20223;-72
2021/12/21 09:27:41;;;;;;;28.57;18.30;;;1.00;99.90;;;;;;5013981;28;20199;-72
2021/12/21 09:30:23;;;;;;;26.13;16.97;;;1.20;99.90;;;;;;5021543;28;20210;-72
2021/12/21 09:32:52;;;;;;;24.87;17.40;;;1.20;99.90;;;;;;5024713;28;20252;-72
2021/12/21 09:35:20;;;;;;;29.27;18.47;;;1.30;99.90;;;;;;5032769;28;20237;-72
2021/12/21 09:37:48;;;;;;;27.90;17.77;;;1.60;99.90;;;;;;5023624;28;20214;-72
2021/12/21 09:40:17;;;;;;;30.60;17.07;;;1.80;99.90;;;;;;5045683;28;20210;-72
2021/12/21 09:42:47;;;;;;;24.63;16.40;;;1.50;99.90;;;;;;5033112;28;20203;-72
2021/12/21 09:45:15;;;;;;;25.30;16.67;;;1.80;99.90;;;;;;5024078;28;20228;-72
2021/12/21 09:47:43;;;;;;;23.73;17.30;;;2.00;99.90;;;;;;5030829;28;20198;-72
2021/12/21 09:50:12;;;;;;;25.33;15.80;;;2.00;99.90;;;;;;5033461;28;20202;-72
2021/12/21 09:52:40;;;;;;;25.80;16.50;;;2.10;99.90;;;;;;5033646;28;20190;-72
2021/12/21 09:55:10;;;;;;;27.07;16.87;;;2.20;99.90;;;;;;5045238;22;20226;-77
2021/12/21 09:57:38;;;;;;;28.47;17.30;;;2.60;99.90;;;;;;5021742;28;20200;-77
2021/12/21 10:00:11;;;;;;;21.60;15.90;;;2.70;99.90;;;;;;5027460;28;20680;-77
2021/12/21 10:03:14;;;;;;;27.83;18.27;;;2.80;99.90;;;;;;5039066;28;20190;-77
2021/12/21 10:05:43;;;;;;;28.50;18.00;;;2.90;99.90;;;;;;5013827;28;20567;-77
2021/12/21 10:08:12;;;;;;;26.33;18.60;;;3.00;99.90;;;;;;5012745;28;20199;-77
2021/12/21 10:10:41;;;;;;;27.10;17.37;;;3.00;99.90;;;;;;5013738;28;20195;-78
2021/12/21 10:13:12;;;;;;;27.07;18.53;;;3.20;99.90;;;;;;5034224;28;20207;-78
2021/12/21 10:15:45;;;;;;;25.30;17.30;;;3.10;99.90;;;;;;5013941;28;20215;-78
2021/12/21 10:18:13;;;;;;;20.83;14.73;;;3.10;99.90;;;;;;5014229;28;20675;-78
2021/12/21 10:20:43;;;;;;;22.20;16.07;;;3.40;99.90;;;;;;5024317;28;20205;-78
2021/12/21 10:23:13;;;;;;;23.60;15.83;;;3.50;99.90;;;;;;5028621;28;20216;-78
2021/12/21 10:25:43;;;;;;;23.73;16.43;;;3.50;99.90;;;;;;5010141;28;20207;-78
2021/12/21 10:28:11;;;;;;;23.30;16.13;;;3.50;99.90;;;;;;5010386;28;20195;-78
2021/12/21 10:30:50;;;;;;;23.37;15.57;;;3.00;99.90;;;;;;5035086;28;20196;-77
2021/12/21 10:33:17;;;;;;;22.90;15.43;;;3.30;99.90;;;;;;5030723;28;20198;-77
2021/12/21 10:35:45;;;;;;;21.60;15.43;;;3.70;99.90;;;;;;5028419;28;20226;-78
2021/12/21 10:38:12;;;;;;;21.17;15.67;;;4.10;99.90;;;;;;5016812;28;20194;-78
2021/12/21 10:40:40;;;;;;;22.13;14.60;;;4.50;99.90;;;;;;5005360;28;20206;-78
2021/12/21 10:43:10;;;;;;;25.07;15.40;;;4.70;99.90;;;;;;5018070;28;20198;-78
2021/12/21 10:45:40;;;;;;;18.93;14.43;;;5.20;99.90;;;;;;5016675;28;20211;-78
2021/12/21 10:48:15;;;;;;;19.40;14.43;;;5.30;99.90;;;;;;5017337;28;20204;-79
2021/12/21 10:50:44;;;;;;;18.87;14.83;;;5.90;99.90;;;;;;5036520;28;20657;-78
2021/12/21 10:53:17;;;;;;;21.27;14.87;;;6.20;99.80;;;;;;5034279;28;20571;-78
2021/12/21 10:55:45;;;;;;;19.33;15.30;;;6.40;99.40;;;;;;5016246;28;20225;-78
2021/12/21 10:58:16;;;;;;;21.17;15.33;;;6.50;98.90;;;;;;5035616;28;20204;-78
2021/12/21 11:00:46;;;;;;;23.37;16.10;;;6.80;98.60;;;;;;5030005;28;20572;-78
2021/12/21 11:03:33;;;;;;;23.57;17.07;;;6.70;97.90;;;;;;5012336;28;20237;-79
2021/12/21 11:06:12;;;;;;;25.50;17.63;;;7.10;97.90;;;;;;5017346;28;20722;-77
2021/12/21 11:08:41;;;;;;;25.03;17.77;;;7.30;97.00;;;;;;5026713;28;20199;-78
2021/12/21 11:11:22;;;;;;;25.80;17.03;;;7.80;96.50;;;;;;5013378;28;20199;-79
2021/12/21 11:14:08;;;;;;;29.07;20.07;;;8.00;95.90;;;;;;5020500;28;20278;-79
2021/12/21 11:16:40;;;;;;;23.43;16.83;;;8.20;95.40;;;;;;5023977;28;20230;-78
2021/12/21 11:19:10;;;;;;;27.10;16.97;;;8.00;95.20;;;;;;5015876;28;20218;-78
2021/12/21 11:21:47;;;;;;;25.03;18.40;;;8.10;94.30;;;;;;5014005;28;20199;-79
2021/12/21 11:24:16;;;;;;;29.07;19.97;;;8.40;94.50;;;;;;5032187;28;20199;-78
2021/12/21 11:26:45;;;;;;;27.53;18.60;;;8.80;93.90;;;;;;5005236;28;20226;-78
2021/12/21 11:29:15;;;;;;;26.57;18.97;;;8.80;93.40;;;;;;5027663;28;20211;-78
2021/12/21 11:31:45;;;;;;;28.27;20.23;;;8.90;93.20;;;;;;5023248;28;20195;-78
2021/12/21 11:34:19;;;;;;;31.17;21.47;;;9.40;92.70;;;;;;5034135;28;20211;-79
2021/12/21 11:39:34;;;;;;;31.17;21.23;;;9.50;91.90;;;;;;5029002;28;20190;-77
2021/12/21 11:42:04;;;;;;;30.20;21.23;;;9.70;90.90;;;;;;5030422;28;20203;-78
2021/12/21 11:44:41;;;;;;;30.80;21.70;;;10.20;89.90;;;;;;5012299;28;20207;-79
2021/12/21 11:47:13;;;;;;;31.70;21.50;;;10.20;88.20;;;;;;5028957;28;20234;-77
2021/12/21 11:49:47;;;;;;;27.03;21.03;;;10.40;87.80;;;;;;5022365;28;20195;-79
2021/12/21 11:52:17;;;;;;;28.73;21.83;;;10.30;85.90;;;;;;5016006;28;20664;-79
2021/12/21 11:54:48;;;;;;;29.30;21.33;;;10.70;85.00;;;;;;5015411;28;20203;-79
2021/12/21 11:57:18;;;;;;;28.73;21.77;;;10.60;83.70;;;;;;5036620;28;20202;-79
2021/12/21 11:59:46;;;;;;;34.00;22.23;;;10.50;84.70;;;;;;5032560;28;20203;-79
2021/12/21 12:02:13;;;;;;;30.00;21.93;;;10.90;83.20;;;;;;5020147;28;20199;-79
2021/12/21 12:04:41;;;;;;;30.00;22.23;;;11.20;81.40;;;;;;5015795;28;20203;-79
2021/12/21 12:07:19;;;;;;;30.53;22.93;;;11.00;80.70;;;;;;5015750;28;20225;-79
2021/12/21 12:09:47;;;;;;;33.50;23.80;;;11.20;80.20;;;;;;5027406;28;20203;-79
2021/12/21 12:12:17;;;;;;;31.33;24.53;;;11.40;78.50;;;;;;5014994;28;20219;-79
2021/12/21 12:15:00;;;;;;;34.05;23.98;;;11.40;78.70;;;;;;5016727;28;20203;-79
2021/12/21 12:17:30;;;;;;;37.63;26.03;;;11.20;77.60;;;;;;5019562;28;20197;-78
2021/12/21 12:20:03;;;;;;;32.30;24.60;;;11.30;78.70;;;;;;5020673;28;20218;-79
2021/12/21 12:22:41;;;;;;;33.65;24.83;;;11.40;77.70;;;;;;5018496;28;20196;-79
2021/12/21 12:25:16;;;;;;;31.07;23.50;;;11.10;77.50;;;;;;5017550;28;20225;-79
2021/12/21 12:27:47;;;;;;;32.90;23.50;;;11.40;77.50;;;;;;5037925;28;20199;-79
2021/12/21 12:30:18;;;;;;;27.60;21.50;;;11.60;76.10;;;;;;5015925;28;20222;-78
2021/12/21 12:32:52;;;;;;;34.07;24.20;;;11.10;76.10;;;;;;5017269;28;20203;-79
2021/12/21 12:35:23;;;;;;;31.07;23.33;;;11.10;76.80;;;;;;5017401;28;20222;-79
2021/12/21 12:37:54;;;;;;;32.53;23.73;;;11.40;76.00;;;;;;5028298;28;20198;-79
2021/12/21 12:40:27;;;;;;;28.60;23.10;;;11.10;75.80;;;;;;5035790;28;20218;-79
2021/12/21 12:42:58;;;;;;;29.42;22.60;;;11.10;76.30;;;;;;5034885;28;20203;-78
2021/12/21 12:45:33;;;;;;;28.93;21.57;;;11.30;75.80;;;;;;5017239;28;20215;-79
2021/12/21 12:48:00;;;;;;;27.57;21.73;;;11.00;76.00;;;;;;5015798;28;20198;-79
2021/12/21 12:50:30;;;;;;;33.28;24.23;;;11.40;75.70;;;;;;5004143;28;20194;-79
2021/12/21 12:53:00;;;;;;;27.60;22.03;;;11.50;74.40;;;;;;5025900;28;20199;-79
2021/12/21 12:55:38;;;;;;;26.38;21.17;;;11.30;74.70;;;;;;5025941;28;20672;-79
2021/12/21 12:58:14;;;;;;;27.77;21.10;;;11.30;75.30;;;;;;5013024;28;20207;-79
2021/12/21 13:00:44;;;;;;;29.55;23.17;;;11.60;74.20;;;;;;5009519;28;20591;-79
2021/12/21 13:03:12;;;;;;;27.35;20.70;;;11.80;73.70;;;;;;5031912;28;20195;-78
2021/12/21 13:05:52;;;;;;;27.25;19.85;;;11.40;73.80;;;;;;5011845;28;20218;-80
2021/12/21 13:08:23;;;;;;;30.65;22.38;;;11.50;74.20;;;;;;5029085;28;20199;-79
2021/12/21 13:10:56;;;;;;;28.17;22.42;;;11.70;74.00;;;;;;5004832;28;20196;-77
2021/12/21 13:13:33;;;;;;;31.25;23.88;;;12.00;73.00;;;;;;5015620;28;20207;-79
2021/12/21 13:16:06;;;;;;;33.42;23.75;;;11.90;72.80;;;;;;5010800;28;20227;-79
2021/12/21 13:18:41;;;;;;;33.08;23.98;;;11.90;72.80;;;;;;4999830;28;20202;-79
2021/12/21 13:21:23;;;;;;;35.35;25.55;;;11.90;70.80;;;;;;4997545;28;20584;-79
2021/12/21 13:24:01;;;;;;;34.47;25.80;;;12.00;71.90;;;;;;5035057;28;20203;-79
2021/12/21 13:26:34;;;;;;;36.95;25.73;;;12.20;71.10;;;;;;5027334;28;20215;-80
2021/12/21 13:29:01;;;;;;;34.22;22.88;;;11.90;70.80;;;;;;5024175;28;20202;-79
2021/12/21 13:31:29;;;;;;;33.72;22.58;;;11.30;71.30;;;;;;5014970;28;20199;-79